This is the latest recevied weather packets stored in our database for station/object AA1FF. If no packets are shown the sender has not sent any weather packets the latest 10 day(s).
| Time | Temp. | Humidity | Pressure | Rain* | Wind** | Luminosity | Snow |
|---|---|---|---|---|---|---|---|
| 1777898027 | 12.22° C | 48% | 1012 hPa | 0 mm | - | 404 W/m² | - |
| 1777897729 | 12.22° C | 49% | 1012 hPa | 0 mm | - | 403 W/m² | - |
| 1777897426 | 12.22° C | 49% | 1012 hPa | 0 mm | - | 370 W/m² | - |
| 1777897125 | 12.22° C | 45% | 1012 hPa | 0 mm | - | 412 W/m² | - |
| 1777896826 | 11.67° C | 46% | 1012 hPa | 0 mm | - | 376 W/m² | - |
| 1777896238 | 10.56° C | 48% | 1012 hPa | 0 mm | - | 181 W/m² | - |
| 1777895924 | 9.44° C | 53% | 1012 hPa | 0 mm | - | 91 W/m² | - |
| 1777895623 | 8.33° C | 58% | 1012 hPa | 0 mm | - | 90 W/m² | - |
| 1777895325 | 7.78° C | 62% | 1012 hPa | 0 mm | - | 86 W/m² | - |
| 1777895025 | 7.22° C | 65% | 1012 hPa | 0 mm | - | 90 W/m² | - |
| 1777894727 | 6.67° C | 67% | 1012 hPa | 0 mm | - | 77 W/m² | - |
| 1777894427 | 6.11° C | 67% | 1012 hPa | 0 mm | - | 75 W/m² | - |
| 1777894126 | 5.56° C | 70% | 1012 hPa | 0 mm | - | 79 W/m² | - |
| 1777893825 | 5° C | 74% | 1012 hPa | 0 mm | - | 67 W/m² | - |
| 1777893526 | 4.44° C | 74% | 1012 hPa | 0 mm | - | 64 W/m² | - |
| 1777893229 | 4.44° C | 74% | 1012 hPa | 0 mm | - | 64 W/m² | - |
| 1777892926 | 4.44° C | 75% | 1012 hPa | 0 mm | - | 59 W/m² | - |
| 1777892625 | 3.89° C | 77% | 1012 hPa | 0 mm | - | 63 W/m² | - |
| 1777892324 | 3.89° C | 78% | 1012 hPa | 0 mm | - | 61 W/m² | - |
| 1777892025 | 3.33° C | 79% | 1012 hPa | 0 mm | - | 67 W/m² | - |
| 1777891724 | 3.33° C | 80% | 1012 hPa | 0 mm | - | 67 W/m² | - |
| 1777891426 | 2.78° C | 81% | 1012 hPa | 0 mm | - | 67 W/m² | - |
| 1777891124 | 2.22° C | 82% | 1012 hPa | 0 mm | - | 66 W/m² | - |
| 1777890825 | 2.22° C | 84% | 1012 hPa | 0 mm | - | 60 W/m² | - |
| 1777890527 | 1.67° C | 84% | 1012 hPa | 0 mm | - | 49 W/m² | - |
* Rain latest hour (hover to see other rain measurements)
** Current wind speed in m/s (hover to see current wind gust speed)